Kahului Airport Kahului US
ICAO: PHOG
IATA:
Category: Medium
Scheduled Services:

Elevation: 54 ft
TransAlt. 18000 ft.

Airport Communications:
MAUI APP/DEP:119.5
ATIS:128.6
MAUI CLNC DEL:120.6
CTAF:118.7
GND:121.9
MAUI RDO:123.6
MAUI TWR:118.7
UNICOM:122.95

PHOG Zoom In..

If you have problems with the map follow the link
https://www.worldairports.se/pages/airport.php?
ICAO=PHOG

Runways:

(A) RW 02 length 6995 ft width 150 ft
ILS 110.10 / hdg 24

(B) RW 05 length 4990 ft width 150 ft
---- / hdg 54

(C) RW 20 length 6995 ft width 150 ft
---- / hdg 204

(D) RW 23 length 4990 ft width 150 ft
---- / hdg 234

Location; PHOG
Day. 14 / Time. 20.54 Zulu
* Altimeter: 30.10
* Temperature: 28° c. 82.4°f.
* Wind from: 060° Speed 16 kn with Gusts up to 30 kn.
Dewpoint: 16° c.
Visibility: 10 Statute Miles.
Clouds: Few 5500 ft.

PHOG 142054Z 06016G30KT 10SM FEW055 28/16 A3010 RMK AO2 PK WND 05032/1957 SLP196 T02780156 58017


Wind From 060°
Speed 16 kn.

 
 
jpsmedia.com for Web Design worldairports.se 2018   terms of use